createdAt,value
2022-09-11T00:02:46.449Z,98245.53
2022-09-11T00:05:54.170Z,98239.75
2022-09-11T00:09:03.251Z,98243.63
2022-09-11T00:12:12.854Z,98240.59
2022-09-11T00:15:21.888Z,98238.03
2022-09-11T00:18:36.517Z,98232.75
2022-09-11T00:21:44.098Z,98227.34
2022-09-11T00:24:52.018Z,98225.91
2022-09-11T00:28:02.010Z,98233.25
2022-09-11T00:31:10.074Z,98225.13
2022-09-11T00:34:20.470Z,98232.75
2022-09-11T00:37:30.880Z,98230.06
2022-09-11T00:40:46.318Z,98225.41
2022-09-11T00:44:01.987Z,98227.63
2022-09-11T00:47:13.497Z,98224.94
2022-09-11T00:50:24.371Z,98237.38
2022-09-11T00:53:34.310Z,98234.53
2022-09-11T00:56:44.884Z,98233.94
2022-09-11T00:59:56.662Z,98229.00
2022-09-11T01:03:05.215Z,98228.69
2022-09-11T01:06:17.190Z,98221.97
2022-09-11T01:09:24.194Z,98224.50
2022-09-11T01:12:38.855Z,98219.09
2022-09-11T01:15:54.375Z,98223.69
2022-09-11T01:19:10.747Z,98223.59
2022-09-11T01:22:45.656Z,98221.97
2022-09-11T01:26:17.244Z,98225.50
2022-09-11T01:29:32.161Z,98224.19
2022-09-11T01:32:46.635Z,98233.44
2022-09-11T01:35:59.127Z,98223.28
2022-09-11T01:39:08.055Z,98234.41
2022-09-11T01:42:18.685Z,98227.88
2022-09-11T01:45:32.815Z,98238.22
2022-09-11T01:48:44.634Z,98228.63
2022-09-11T01:51:58.110Z,98223.09
2022-09-11T01:55:09.225Z,98226.59
2022-09-11T01:58:22.204Z,98225.81
2022-09-11T02:01:33.561Z,98222.59
2022-09-11T02:04:44.642Z,98235.66
2022-09-11T02:07:59.839Z,98234.66
2022-09-11T02:11:12.844Z,98232.56
2022-09-11T02:14:30.892Z,98242.59
2022-09-11T02:17:53.439Z,98235.88
2022-09-11T02:21:01.004Z,98237.00
2022-09-11T02:24:10.679Z,98238.28
2022-09-11T02:27:28.622Z,98244.38
2022-09-11T02:30:40.109Z,98244.06
2022-09-11T02:33:49.090Z,98237.72
2022-09-11T02:37:14.041Z,98253.22
2022-09-11T02:40:40.580Z,98245.41
2022-09-11T02:44:04.266Z,98252.31
2022-09-11T02:47:23.228Z,98254.38
2022-09-11T02:50:36.777Z,98260.88
2022-09-11T02:54:00.647Z,98258.53
2022-09-11T02:57:15.409Z,98257.03
2022-09-11T03:00:25.390Z,98258.03
2022-09-11T03:03:41.902Z,98257.44
2022-09-11T03:06:53.970Z,98251.19
2022-09-11T03:10:02.596Z,98255.66
2022-09-11T03:13:10.544Z,98256.97
2022-09-11T03:16:17.902Z,98244.34
2022-09-11T03:19:27.728Z,98252.28
2022-09-11T03:22:39.965Z,98246.22
2022-09-11T03:25:53.038Z,98258.53
2022-09-11T03:29:03.912Z,98255.00
2022-09-11T03:32:12.647Z,98259.00
2022-09-11T03:35:18.841Z,98257.28
2022-09-11T03:38:28.078Z,98256.63
2022-09-11T03:41:35.859Z,98260.25
2022-09-11T03:44:42.867Z,98256.44
2022-09-11T03:47:49.478Z,98258.34
2022-09-11T03:51:03.830Z,98261.22
2022-09-11T03:54:16.087Z,98262.53
2022-09-11T03:57:23.088Z,98272.06
2022-09-11T04:00:35.711Z,98262.34
2022-09-11T04:03:42.367Z,98263.44
2022-09-11T04:06:48.961Z,98272.06
2022-09-11T04:09:56.986Z,98264.06
2022-09-11T04:13:03.595Z,98266.16
2022-09-11T04:16:13.530Z,98258.66
2022-09-11T04:19:22.918Z,98270.47
2022-09-11T04:22:35.986Z,98268.72
2022-09-11T04:25:49.501Z,98275.75
2022-09-11T04:28:57.211Z,98277.47
2022-09-11T04:32:06.852Z,98272.38
2022-09-11T04:35:16.086Z,98273.28
2022-09-11T04:38:24.703Z,98283.31
2022-09-11T04:41:36.709Z,98284.22
2022-09-11T04:44:48.283Z,98290.72
2022-09-11T04:48:04.229Z,98298.56
2022-09-11T04:55:13.645Z,98301.78
2022-09-11T04:58:39.016Z,98316.28
2022-09-11T05:01:53.035Z,98308.00
2022-09-11T05:05:03.386Z,98317.25
2022-09-11T05:08:30.514Z,98323.22
2022-09-11T05:11:48.609Z,98323.66
2022-09-11T05:14:57.727Z,98330.66
2022-09-11T05:18:05.191Z,98334.69
2022-09-11T05:21:15.243Z,98337.56
2022-09-11T05:24:24.104Z,98342.00
2022-09-11T05:27:31.268Z,98344.38
2022-09-11T05:30:39.362Z,98344.09
2022-09-11T05:33:46.564Z,98348.50
2022-09-11T05:36:52.917Z,98353.09
2022-09-11T05:40:00.106Z,98350.09
2022-09-11T05:43:06.467Z,98359.81
2022-09-11T05:46:17.193Z,98358.84
2022-09-11T05:49:24.428Z,98356.19
2022-09-11T05:52:32.794Z,98355.91
2022-09-11T05:55:42.055Z,98362.03
2022-09-11T05:58:48.521Z,98359.88
2022-09-11T06:02:00.997Z,98365.28
2022-09-11T06:05:07.795Z,98375.31
2022-09-11T06:08:15.700Z,98382.44
2022-09-11T06:11:23.200Z,98389.28
2022-09-11T06:14:28.822Z,98387.25
2022-09-11T06:17:36.757Z,98400.38
2022-09-11T06:20:42.785Z,98397.19
2022-09-11T06:23:49.721Z,98403.09
2022-09-11T06:26:56.784Z,98404.06
2022-09-11T06:30:03.869Z,98410.78
2022-09-11T06:33:14.371Z,98410.66
2022-09-11T06:36:21.320Z,98408.81
2022-09-11T06:39:28.167Z,98413.72
2022-09-11T06:42:38.388Z,98425.25
2022-09-11T06:45:45.360Z,98431.78
2022-09-11T06:48:55.190Z,98428.63
2022-09-11T06:52:03.591Z,98426.91
2022-09-11T06:55:15.102Z,98424.69
2022-09-11T06:58:25.267Z,98430.09
2022-09-11T07:01:36.739Z,98428.03
2022-09-11T07:04:50.043Z,98432.00
2022-09-11T07:07:59.538Z,98431.91
2022-09-11T07:11:08.018Z,98420.56
2022-09-11T07:14:14.099Z,98423.88
2022-09-11T07:17:20.060Z,98424.69
2022-09-11T07:20:29.484Z,98430.44
2022-09-11T07:23:36.673Z,98436.19
2022-09-11T07:26:44.474Z,98436.19
2022-09-11T07:29:56.064Z,98432.25
2022-09-11T07:33:05.195Z,98435.94
2022-09-11T07:36:14.941Z,98437.56
2022-09-11T07:39:21.413Z,98443.16
2022-09-11T07:42:27.859Z,98443.00
2022-09-11T07:45:33.594Z,98445.41
2022-09-11T07:48:41.475Z,98442.41
2022-09-11T07:51:49.117Z,98462.16
2022-09-11T07:54:55.686Z,98458.84
2022-09-11T07:58:04.147Z,98463.63
2022-09-11T08:01:11.977Z,98471.78
2022-09-11T08:04:19.135Z,98460.22
2022-09-11T08:07:27.094Z,98467.59
2022-09-11T08:10:34.607Z,98469.56
2022-09-11T08:13:41.081Z,98466.09
2022-09-11T08:16:47.656Z,98465.03
2022-09-11T08:19:53.774Z,98475.44
2022-09-11T08:23:01.780Z,98474.84
2022-09-11T08:26:09.582Z,98477.13
2022-09-11T08:29:15.806Z,98487.34
2022-09-11T08:32:22.044Z,98487.63
2022-09-11T08:35:28.819Z,98491.28
2022-09-11T08:38:37.765Z,98484.22
2022-09-11T08:41:50.236Z,98487.22
2022-09-11T08:45:00.239Z,98487.25
2022-09-11T08:48:10.026Z,98488.81
2022-09-11T08:51:20.739Z,98476.25
2022-09-11T08:54:31.586Z,98482.28
2022-09-11T08:57:45.743Z,98482.00
2022-09-11T09:01:01.554Z,98478.97
2022-09-11T09:04:31.521Z,98485.28
2022-09-11T09:07:48.629Z,98477.94
2022-09-11T09:11:12.628Z,98485.47
2022-09-11T09:14:58.056Z,98491.16
2022-09-11T09:18:17.809Z,98480.50
2022-09-11T09:21:32.715Z,98485.97
2022-09-11T09:24:47.870Z,98494.38
2022-09-11T09:28:03.040Z,98497.28
2022-09-11T09:31:16.506Z,98486.63
2022-09-11T09:34:27.399Z,98489.72
2022-09-11T09:37:35.875Z,98499.84
2022-09-11T09:40:46.564Z,98501.13
2022-09-11T09:44:01.726Z,98505.78
2022-09-11T09:47:14.451Z,98509.97
2022-09-11T09:50:23.395Z,98502.91
2022-09-11T09:53:37.491Z,98505.28
2022-09-11T09:56:44.915Z,98499.72
2022-09-11T10:00:01.269Z,98498.75
2022-09-11T10:03:23.247Z,98504.03
2022-09-11T10:06:33.173Z,98499.22
2022-09-11T10:09:42.130Z,98499.56
2022-09-11T10:13:07.837Z,98502.28
2022-09-11T10:16:51.851Z,98504.72
2022-09-11T10:20:13.569Z,98505.50
2022-09-11T10:23:31.035Z,98503.56
2022-09-11T10:26:47.290Z,98495.25
2022-09-11T10:29:55.145Z,98498.28
2022-09-11T10:33:05.745Z,98498.28
2022-09-11T10:36:15.733Z,98491.97
2022-09-11T10:39:24.351Z,98493.38
2022-09-11T10:42:35.989Z,98487.56
2022-09-11T10:45:41.834Z,98490.28
2022-09-11T10:48:56.607Z,98480.34
2022-09-11T10:52:05.990Z,98472.16
2022-09-11T10:55:18.516Z,98474.81
2022-09-11T10:58:28.774Z,98476.66
2022-09-11T11:01:35.138Z,98478.38
2022-09-11T11:04:43.129Z,98483.25
2022-09-11T11:08:14.563Z,98481.84
2022-09-11T11:11:40.000Z,98483.75
2022-09-11T11:15:10.654Z,98483.31
2022-09-11T11:18:39.052Z,98478.16
2022-09-11T11:22:00.867Z,98475.16
2022-09-11T11:25:20.622Z,98484.59
2022-09-11T11:28:47.326Z,98476.06
2022-09-11T11:32:19.363Z,98473.56
2022-09-11T11:35:34.852Z,98480.41
2022-09-11T11:38:49.297Z,98478.81
2022-09-11T11:42:11.031Z,98474.50
2022-09-11T11:45:26.732Z,98472.66
2022-09-11T11:48:40.336Z,98471.66
2022-09-11T11:51:53.234Z,98468.44
2022-09-11T11:55:08.022Z,98473.13
2022-09-11T11:58:24.221Z,98476.66
2022-09-11T12:01:38.505Z,98477.75
2022-09-11T12:04:52.417Z,98480.84
2022-09-11T12:07:58.303Z,98486.41
2022-09-11T12:11:08.232Z,98482.22
2022-09-11T12:14:34.147Z,98487.00
2022-09-11T12:17:40.154Z,98481.19
2022-09-11T12:20:57.754Z,98480.25
2022-09-11T12:32:42.191Z,98474.47
2022-09-11T12:36:04.906Z,98476.97
2022-09-11T12:39:35.246Z,98480.94
2022-09-11T12:43:24.119Z,98478.31
2022-09-11T12:47:17.224Z,98476.19
2022-09-11T12:50:35.194Z,98474.81
2022-09-11T12:53:46.716Z,98478.91
2022-09-11T12:57:20.474Z,98481.53
2022-09-11T13:00:44.200Z,98474.13
2022-09-11T13:03:59.026Z,98475.59
2022-09-11T13:07:16.531Z,98468.81
2022-09-11T13:10:35.784Z,98468.09
2022-09-11T13:13:48.626Z,98460.31
2022-09-11T13:17:05.414Z,98462.59
2022-09-11T13:20:33.311Z,98462.44
2022-09-11T13:23:45.601Z,98454.00
2022-09-11T13:26:55.941Z,98461.72
2022-09-11T13:30:07.320Z,98460.72
2022-09-11T13:33:30.940Z,98452.47
2022-09-11T13:36:37.311Z,98451.34
2022-09-11T13:39:44.097Z,98448.50
2022-09-11T13:42:47.157Z,98449.22
2022-09-11T14:02:49.655Z,98442.75
2022-09-11T14:05:54.888Z,98428.72
2022-09-11T14:08:58.088Z,98424.13
2022-09-11T14:12:03.450Z,98423.84
2022-09-11T14:15:17.298Z,98424.97
2022-09-11T14:18:29.962Z,98417.66
2022-09-11T14:21:35.286Z,98404.38
2022-09-11T14:24:38.732Z,98399.00
2022-09-11T14:27:44.621Z,98399.16
2022-09-11T14:31:10.784Z,98398.16
2022-09-11T14:34:18.944Z,98391.28
2022-09-11T14:37:22.700Z,98389.88
2022-09-11T14:40:25.355Z,98388.84
2022-09-11T14:43:32.606Z,98381.13
2022-09-11T14:46:37.010Z,98377.69
2022-09-11T14:49:39.678Z,98382.94
2022-09-11T14:52:43.412Z,98384.59
2022-09-11T14:55:46.257Z,98375.03
2022-09-11T14:58:49.411Z,98378.13
2022-09-11T15:01:53.466Z,98374.09
2022-09-11T15:04:58.382Z,98375.38
2022-09-11T15:08:01.378Z,98376.25
2022-09-11T15:11:06.135Z,98374.31
2022-09-11T15:14:23.458Z,98378.56
2022-09-11T15:17:36.172Z,98372.94
2022-09-11T15:20:39.561Z,98371.25
2022-09-11T15:23:42.214Z,98371.63
2022-09-11T15:26:45.622Z,98374.53
2022-09-11T15:29:48.285Z,98368.91
2022-09-11T15:32:52.277Z,98372.56
2022-09-11T15:35:56.777Z,98364.09
2022-09-11T15:38:59.429Z,98358.81
2022-09-11T15:42:02.725Z,98356.44
2022-09-11T15:45:07.441Z,98355.69
2022-09-11T15:48:11.433Z,98362.38
2022-09-11T15:51:15.573Z,98352.66
2022-09-11T15:54:20.452Z,98356.34
2022-09-11T15:57:23.224Z,98352.28
2022-09-11T16:00:25.855Z,98350.94
2022-09-11T16:03:30.515Z,98353.22
2022-09-11T16:06:37.539Z,98352.09
2022-09-11T16:09:40.241Z,98358.50
2022-09-11T16:12:43.267Z,98349.78
2022-09-11T16:15:46.302Z,98351.16
2022-09-11T16:18:50.322Z,98351.19
2022-09-11T16:21:53.566Z,98351.75
2022-09-11T16:24:56.237Z,98344.06
2022-09-11T16:27:58.985Z,98351.25
2022-09-11T16:31:02.429Z,98346.94
2022-09-11T16:34:06.485Z,98355.50
2022-09-11T16:37:10.848Z,98355.88
2022-09-11T16:40:13.552Z,98361.03
2022-09-11T16:43:21.258Z,98359.16
2022-09-11T16:46:26.879Z,98358.59
2022-09-11T16:49:44.839Z,98352.00
2022-09-11T19:50:09.039Z,98390.34
2022-09-11T19:53:14.832Z,98383.41
2022-09-11T19:56:23.048Z,98387.19
2022-09-11T19:59:29.680Z,98391.63
2022-09-11T20:02:34.771Z,98387.94
2022-09-11T20:05:42.818Z,98391.25
2022-09-11T20:08:49.423Z,98391.56
2022-09-11T20:11:55.140Z,98392.38
2022-09-11T20:15:02.302Z,98390.88
2022-09-11T20:18:07.893Z,98391.78
2022-09-11T20:21:15.951Z,98399.72
2022-09-11T20:24:22.664Z,98400.13
2022-09-11T20:27:27.967Z,98400.75
2022-09-11T20:30:35.085Z,98403.75
2022-09-11T20:33:40.159Z,98401.63
2022-09-11T20:36:47.617Z,98402.06
2022-09-11T20:39:52.798Z,98393.13
2022-09-11T20:42:58.005Z,98394.53
2022-09-11T20:46:04.930Z,98395.44
2022-09-11T20:49:09.907Z,98390.63
2022-09-11T20:52:17.020Z,98388.56
2022-09-11T20:55:22.330Z,98394.84
2022-09-11T20:58:27.531Z,98388.13
2022-09-11T21:01:35.609Z,98387.13
2022-09-11T21:04:41.016Z,98390.16
2022-09-11T21:07:47.228Z,98388.06
2022-09-11T21:10:52.368Z,98387.06
2022-09-11T21:13:57.682Z,98382.84
2022-09-11T21:17:03.912Z,98381.22
2022-09-11T21:20:09.331Z,98375.03
2022-09-11T21:23:15.689Z,98384.75
2022-09-11T21:26:22.489Z,98381.22
2022-09-11T21:29:27.645Z,98381.91
2022-09-11T21:32:34.019Z,98380.94
2022-09-11T21:35:39.227Z,98379.09
2022-09-11T21:38:44.222Z,98377.22
2022-09-11T21:41:49.055Z,98378.59
2022-09-11T21:44:55.874Z,98376.28
2022-09-11T21:48:03.363Z,98377.69
2022-09-11T21:51:10.251Z,98386.69
2022-09-11T21:54:15.359Z,98383.78
2022-09-11T21:57:21.022Z,98377.88
2022-09-11T22:00:26.005Z,98383.34
2022-09-11T22:03:32.775Z,98376.16
2022-09-11T22:06:38.115Z,98381.56
2022-09-11T22:09:43.173Z,98384.06
2022-09-11T22:12:48.631Z,98377.84
2022-09-11T22:15:53.755Z,98374.13
2022-09-11T22:18:59.790Z,98383.13
2022-09-11T22:22:05.098Z,98374.22
2022-09-11T22:25:11.004Z,98375.13
2022-09-11T22:28:18.306Z,98371.72
2022-09-11T22:31:29.438Z,98373.09
2022-09-11T22:34:37.138Z,98365.28
2022-09-11T22:37:42.156Z,98362.47
2022-09-11T22:40:47.475Z,98367.84
2022-09-11T22:43:52.536Z,98360.94
2022-09-11T22:46:58.080Z,98374.16
2022-09-11T22:50:04.884Z,98369.03
2022-09-11T22:53:10.065Z,98366.63
2022-09-11T22:56:15.528Z,98363.22
2022-09-11T22:59:22.909Z,98364.31
2022-09-11T23:02:28.121Z,98359.19
2022-09-11T23:05:51.195Z,98365.72
2022-09-11T23:08:56.411Z,98359.50
2022-09-11T23:12:01.830Z,98362.56
2022-09-11T23:15:07.229Z,98362.81
2022-09-11T23:18:12.524Z,98363.47
2022-09-11T23:21:18.623Z,98364.34
2022-09-11T23:24:25.707Z,98362.81
2022-09-11T23:27:30.812Z,98359.31
2022-09-11T23:30:35.391Z,98354.72
2022-09-11T23:33:40.426Z,98351.19
2022-09-11T23:36:47.623Z,98348.06
2022-09-11T23:39:52.695Z,98346.72
2022-09-11T23:42:57.820Z,98346.72
2022-09-11T23:46:03.164Z,98350.53
2022-09-11T23:49:08.255Z,98348.91
2022-09-11T23:52:14.454Z,98354.63
2022-09-11T23:55:19.581Z,98344.47
2022-09-11T23:58:25.193Z,98343.47
